sensor_id;sensor_type;location;lat;lon;timestamp;P1;durP1;ratioP1;P2;durP2;ratioP2
59442;SDS011;45247;47.466;19.004;2022-08-21T20:26:14;2.45;;;1.80;;
59442;SDS011;45247;47.466;19.004;2022-08-21T20:28:43;4.85;;;1.67;;
59442;SDS011;45247;47.466;19.004;2022-08-21T20:31:16;3.33;;;1.52;;
59442;SDS011;45247;47.466;19.004;2022-08-21T20:33:46;3.30;;;1.50;;
59442;SDS011;45247;47.466;19.004;2022-08-21T20:36:17;3.78;;;1.40;;
59442;SDS011;45247;47.466;19.004;2022-08-21T20:38:48;2.17;;;1.30;;
59442;SDS011;45247;47.466;19.004;2022-08-21T20:41:17;3.55;;;1.30;;
59442;SDS011;45247;47.466;19.004;2022-08-21T20:43:56;1.70;;;1.27;;
59442;SDS011;45247;47.466;19.004;2022-08-21T20:46:26;2.22;;;1.30;;
59442;SDS011;45247;47.466;19.004;2022-08-21T20:48:56;5.13;;;1.30;;
59442;SDS011;45247;47.466;19.004;2022-08-21T20:51:30;3.30;;;1.40;;
59442;SDS011;45247;47.466;19.004;2022-08-21T20:54:06;1.80;;;1.40;;
59442;SDS011;45247;47.466;19.004;2022-08-21T20:56:43;1.60;;;1.35;;
59442;SDS011;45247;47.466;19.004;2022-08-21T20:59:37;2.22;;;1.30;;
59442;SDS011;45247;47.466;19.004;2022-08-21T21:02:28;2.55;;;1.48;;
59442;SDS011;45247;47.466;19.004;2022-08-21T21:05:08;3.35;;;1.33;;
59442;SDS011;45247;47.466;19.004;2022-08-21T21:07:46;2.55;;;1.40;;
59442;SDS011;45247;47.466;19.004;2022-08-21T21:10:26;2.30;;;1.40;;
59442;SDS011;45247;47.466;19.004;2022-08-21T21:13:00;3.47;;;1.23;;
59442;SDS011;45247;47.466;19.004;2022-08-21T21:15:32;1.50;;;1.30;;
59442;SDS011;45247;47.466;19.004;2022-08-21T21:18:07;2.17;;;1.27;;
59442;SDS011;45247;47.466;19.004;2022-08-21T21:20:42;5.10;;;1.77;;
59442;SDS011;45247;47.466;19.004;2022-08-21T21:23:18;5.75;;;1.50;;
59442;SDS011;45247;47.466;19.004;2022-08-21T21:25:58;2.35;;;1.40;;
59442;SDS011;45247;47.466;19.004;2022-08-21T21:28:41;4.65;;;2.10;;
59442;SDS011;45247;47.466;19.004;2022-08-21T21:31:16;2.53;;;1.60;;
59442;SDS011;45247;47.466;19.004;2022-08-21T21:33:45;4.28;;;1.70;;
59442;SDS011;45247;47.466;19.004;2022-08-21T21:36:18;2.70;;;1.60;;
59442;SDS011;45247;47.466;19.004;2022-08-21T21:38:59;4.30;;;1.90;;
59442;SDS011;45247;47.466;19.004;2022-08-21T21:41:38;5.32;;;1.98;;
59442;SDS011;45247;47.466;19.004;2022-08-21T21:47:16;3.33;;;2.00;;
59442;SDS011;45247;47.466;19.004;2022-08-21T21:49:57;3.40;;;1.63;;
59442;SDS011;45247;47.466;19.004;2022-08-21T21:52:47;7.15;;;2.42;;
59442;SDS011;45247;47.466;19.004;2022-08-21T21:55:45;3.33;;;2.10;;
59442;SDS011;45247;47.466;19.004;2022-08-21T21:58:31;3.78;;;2.13;;
59442;SDS011;45247;47.466;19.004;2022-08-21T22:01:10;3.88;;;2.03;;
59442;SDS011;45247;47.466;19.004;2022-08-21T22:03:43;4.28;;;2.33;;
59442;SDS011;45247;47.466;19.004;2022-08-21T22:06:22;4.80;;;2.50;;
59442;SDS011;45247;47.466;19.004;2022-08-21T22:09:00;6.80;;;2.50;;
59442;SDS011;45247;47.466;19.004;2022-08-21T22:11:43;4.28;;;2.67;;
59442;SDS011;45247;47.466;19.004;2022-08-21T22:14:23;4.03;;;2.65;;
59442;SDS011;45247;47.466;19.004;2022-08-21T22:16:59;4.25;;;2.70;;
59442;SDS011;45247;47.466;19.004;2022-08-21T22:19:36;3.67;;;2.42;;
59442;SDS011;45247;47.466;19.004;2022-08-21T22:22:09;3.22;;;2.53;;
59442;SDS011;45247;47.466;19.004;2022-08-21T22:24:44;3.40;;;2.42;;
59442;SDS011;45247;47.466;19.004;2022-08-21T22:27:17;3.35;;;2.78;;
59442;SDS011;45247;47.466;19.004;2022-08-21T22:29:49;5.88;;;3.15;;
59442;SDS011;45247;47.466;19.004;2022-08-21T22:32:23;4.00;;;1.95;;
59442;SDS011;45247;47.466;19.004;2022-08-21T22:34:59;4.68;;;2.97;;
59442;SDS011;45247;47.466;19.004;2022-08-21T22:37:35;4.03;;;3.08;;
59442;SDS011;45247;47.466;19.004;2022-08-21T22:40:06;5.95;;;2.58;;
59442;SDS011;45247;47.466;19.004;2022-08-21T22:42:36;4.43;;;3.45;;
59442;SDS011;45247;47.466;19.004;2022-08-21T22:45:07;3.60;;;2.80;;
59442;SDS011;45247;47.466;19.004;2022-08-21T22:47:40;7.25;;;3.28;;
59442;SDS011;45247;47.466;19.004;2022-08-21T22:50:16;5.75;;;3.13;;
59442;SDS011;45247;47.466;19.004;2022-08-21T22:52:50;4.10;;;3.00;;
59442;SDS011;45247;47.466;19.004;2022-08-21T22:55:22;3.88;;;3.00;;
59442;SDS011;45247;47.466;19.004;2022-08-21T22:58:18;4.50;;;3.08;;
59442;SDS011;45247;47.466;19.004;2022-08-21T23:00:53;5.82;;;3.55;;
59442;SDS011;45247;47.466;19.004;2022-08-21T23:03:29;5.03;;;3.28;;
59442;SDS011;45247;47.466;19.004;2022-08-21T23:06:00;10.95;;;4.47;;
59442;SDS011;45247;47.466;19.004;2022-08-21T23:08:50;6.68;;;3.13;;
59442;SDS011;45247;47.466;19.004;2022-08-21T23:11:20;3.42;;;2.72;;
59442;SDS011;45247;47.466;19.004;2022-08-21T23:13:53;7.82;;;3.05;;
59442;SDS011;45247;47.466;19.004;2022-08-21T23:16:28;6.22;;;3.53;;
59442;SDS011;45247;47.466;19.004;2022-08-21T23:19:10;5.10;;;3.03;;
59442;SDS011;45247;47.466;19.004;2022-08-21T23:21:51;6.30;;;3.30;;
59442;SDS011;45247;47.466;19.004;2022-08-21T23:24:35;8.77;;;3.75;;
59442;SDS011;45247;47.466;19.004;2022-08-21T23:27:17;4.32;;;3.58;;
59442;SDS011;45247;47.466;19.004;2022-08-21T23:30:03;5.68;;;3.40;;
59442;SDS011;45247;47.466;19.004;2022-08-21T23:35:27;5.93;;;3.83;;
59442;SDS011;45247;47.466;19.004;2022-08-21T23:38:40;4.53;;;3.30;;
59442;SDS011;45247;47.466;19.004;2022-08-21T23:41:21;3.38;;;2.90;;
59442;SDS011;45247;47.466;19.004;2022-08-21T23:44:06;6.20;;;3.40;;
59442;SDS011;45247;47.466;19.004;2022-08-21T23:46:50;6.78;;;3.60;;
59442;SDS011;45247;47.466;19.004;2022-08-21T23:49:32;9.85;;;3.70;;
59442;SDS011;45247;47.466;19.004;2022-08-21T23:52:12;6.43;;;3.75;;
59442;SDS011;45247;47.466;19.004;2022-08-21T23:54:55;4.70;;;3.80;;
59442;SDS011;45247;47.466;19.004;2022-08-21T23:57:47;7.10;;;3.40;;
